createdAt,value
2023-03-18T00:01:34.785Z,80.40
2023-03-18T00:04:01.990Z,80.57
2023-03-18T00:06:30.584Z,80.36
2023-03-18T00:08:58.555Z,80.22
2023-03-18T00:11:27.527Z,80.35
2023-03-18T00:13:55.884Z,80.18
2023-03-18T00:16:27.202Z,80.28
2023-03-18T00:18:56.131Z,80.06
2023-03-18T00:21:24.199Z,80.01
2023-03-18T00:23:56.253Z,80.10
2023-03-18T00:26:26.289Z,79.94
2023-03-18T00:29:07.354Z,80.25
2023-03-18T00:31:35.567Z,80.08
2023-03-18T00:34:04.356Z,79.78
2023-03-18T00:36:32.125Z,79.82
2023-03-18T00:39:03.374Z,79.80
2023-03-18T00:41:34.073Z,79.69
2023-03-18T00:44:04.472Z,79.99
2023-03-18T00:46:38.111Z,79.88
2023-03-18T00:49:07.062Z,79.85
2023-03-18T00:51:37.018Z,79.95
2023-03-18T00:54:12.394Z,80.19
2023-03-18T00:56:41.319Z,80.21
2023-03-18T00:59:11.699Z,80.28
2023-03-18T01:01:39.497Z,80.24
2023-03-18T01:04:07.564Z,80.13
2023-03-18T01:06:35.982Z,80.31
2023-03-18T01:09:06.209Z,79.85
2023-03-18T01:11:37.405Z,79.81
2023-03-18T01:14:05.783Z,79.93
2023-03-18T01:16:37.486Z,79.80
2023-03-18T01:19:06.366Z,79.84
2023-03-18T01:21:33.598Z,79.96
2023-03-18T01:24:01.363Z,79.62
2023-03-18T01:26:30.160Z,79.86
2023-03-18T01:28:59.858Z,80.01
2023-03-18T01:31:28.171Z,79.60
2023-03-18T01:33:57.847Z,79.68
2023-03-18T01:36:28.530Z,79.60
2023-03-18T01:39:06.300Z,79.71
2023-03-18T01:41:36.584Z,79.58
2023-03-18T01:44:11.152Z,79.51
2023-03-18T01:46:45.647Z,79.30
2023-03-18T01:49:17.211Z,79.38
2023-03-18T01:51:57.159Z,79.12
2023-03-18T01:54:27.555Z,79.21
2023-03-18T01:56:55.494Z,79.13
2023-03-18T01:59:24.033Z,78.72
2023-03-18T02:01:58.335Z,78.77
2023-03-18T02:04:29.074Z,78.31
2023-03-18T02:06:58.216Z,78.09
2023-03-18T02:09:30.561Z,78.09
2023-03-18T02:12:00.264Z,78.10
2023-03-18T02:14:29.255Z,77.95
2023-03-18T02:17:02.527Z,77.78
2023-03-18T02:20:03.905Z,77.98
2023-03-18T02:22:33.956Z,77.79
2023-03-18T02:29:48.478Z,77.05
2023-03-18T02:32:18.557Z,77.30
2023-03-18T02:34:46.066Z,77.05
2023-03-18T02:37:13.246Z,77.40
2023-03-18T02:39:42.783Z,77.25
2023-03-18T02:42:14.285Z,77.33
2023-03-18T02:44:48.284Z,77.24
2023-03-18T02:47:40.559Z,77.11
2023-03-18T02:50:10.267Z,77.07
2023-03-18T02:52:38.759Z,76.87
2023-03-18T02:55:07.700Z,76.61
2023-03-18T02:57:36.177Z,76.88
2023-03-18T03:00:05.341Z,76.75
2023-03-18T03:02:35.220Z,76.49
2023-03-18T03:05:05.059Z,76.67
2023-03-18T03:07:32.515Z,77.03
2023-03-18T03:10:05.279Z,76.80
2023-03-18T03:12:41.338Z,76.60
2023-03-18T03:15:12.816Z,76.82
2023-03-18T03:17:43.617Z,76.56
2023-03-18T03:20:11.669Z,76.93
2023-03-18T03:22:39.504Z,76.53
2023-03-18T03:25:10.273Z,76.53
2023-03-18T03:27:38.361Z,76.61
2023-03-18T03:30:09.284Z,76.84
2023-03-18T03:32:36.849Z,76.77
2023-03-18T03:35:04.877Z,76.82
2023-03-18T03:37:32.067Z,76.93
2023-03-18T03:40:00.051Z,76.55
2023-03-18T03:42:27.008Z,77.24
2023-03-18T03:44:54.781Z,77.00
2023-03-18T03:47:24.676Z,77.00
2023-03-18T03:49:52.012Z,77.05
2023-03-18T03:52:21.686Z,76.86
2023-03-18T03:54:51.060Z,76.64
2023-03-18T03:57:19.453Z,76.42
2023-03-18T03:59:47.466Z,76.62
2023-03-18T04:02:25.015Z,76.65
2023-03-18T04:04:53.242Z,76.59
2023-03-18T04:07:26.743Z,76.69
2023-03-18T04:09:55.768Z,76.73
2023-03-18T04:12:23.481Z,76.61
2023-03-18T04:14:55.751Z,76.39
2023-03-18T04:17:26.459Z,76.61
2023-03-18T04:19:56.246Z,76.52
2023-03-18T04:22:29.546Z,76.95
2023-03-18T04:24:58.832Z,76.60
2023-03-18T04:27:31.123Z,76.52
2023-03-18T04:30:01.452Z,76.28
2023-03-18T04:32:37.507Z,76.11
2023-03-18T04:35:09.333Z,76.06
2023-03-18T04:37:37.617Z,76.06
2023-03-18T04:40:06.891Z,76.19
2023-03-18T04:42:35.071Z,76.21
2023-03-18T04:45:05.315Z,75.89
2023-03-18T04:47:35.717Z,76.48
2023-03-18T04:50:04.316Z,76.57
2023-03-18T04:52:36.566Z,76.38
2023-03-18T04:55:08.212Z,76.36
2023-03-18T04:57:38.606Z,76.26
2023-03-18T05:00:11.543Z,76.49
2023-03-18T05:02:40.938Z,76.09
2023-03-18T05:05:08.296Z,76.04
2023-03-18T05:07:40.067Z,75.93
2023-03-18T05:10:10.835Z,75.63
2023-03-18T05:12:43.041Z,75.54
2023-03-18T05:15:14.230Z,75.01
2023-03-18T05:17:46.090Z,75.16
2023-03-18T05:20:15.794Z,74.88
2023-03-18T05:22:44.506Z,74.54
2023-03-18T05:25:16.944Z,74.79
2023-03-18T05:27:45.399Z,74.53
2023-03-18T05:30:22.983Z,74.11
2023-03-18T05:33:00.643Z,74.34
2023-03-18T05:35:46.707Z,74.19
2023-03-18T05:38:27.112Z,74.28
2023-03-18T05:41:00.143Z,74.01
2023-03-18T05:43:39.902Z,73.78
2023-03-18T05:46:12.575Z,73.91
2023-03-18T05:48:52.428Z,74.35
2023-03-18T05:51:24.676Z,74.24
2023-03-18T05:53:57.719Z,74.32
2023-03-18T05:56:43.137Z,74.57
2023-03-18T05:59:20.493Z,74.85
2023-03-18T06:01:54.657Z,74.89
2023-03-18T06:04:27.420Z,75.03
2023-03-18T06:07:00.759Z,74.82
2023-03-18T06:09:30.777Z,74.71
2023-03-18T06:11:59.464Z,74.80
2023-03-18T06:14:29.121Z,74.72
2023-03-18T06:17:00.045Z,74.41
2023-03-18T06:19:31.913Z,73.99
2023-03-18T06:21:59.081Z,73.76
2023-03-18T06:24:28.693Z,74.08
2023-03-18T06:26:56.978Z,74.26
2023-03-18T06:29:26.651Z,74.42
2023-03-18T06:31:56.068Z,74.34
2023-03-18T06:34:31.935Z,73.99
2023-03-18T06:37:03.723Z,73.77
2023-03-18T06:39:31.972Z,73.49
2023-03-18T06:42:03.416Z,73.58
2023-03-18T06:44:56.876Z,73.61
2023-03-18T06:47:32.605Z,73.63
2023-03-18T06:50:01.096Z,73.14
2023-03-18T06:52:36.980Z,72.87
2023-03-18T06:55:09.803Z,72.88
2023-03-18T06:57:39.896Z,73.16
2023-03-18T07:17:37.050Z,71.76
2023-03-18T07:20:14.878Z,71.31
2023-03-18T07:22:54.731Z,71.41
2023-03-18T07:25:23.257Z,71.41
2023-03-18T07:27:58.217Z,70.96
2023-03-18T07:31:15.049Z,71.05
2023-03-18T07:33:49.406Z,70.57
2023-03-18T07:36:20.383Z,70.70
2023-03-18T07:38:49.209Z,70.90
2023-03-18T07:41:20.557Z,70.92
2023-03-18T07:43:53.305Z,70.74
2023-03-18T07:46:27.536Z,70.91
2023-03-18T07:48:59.572Z,71.02
2023-03-18T07:51:37.067Z,70.63
2023-03-18T07:54:18.265Z,69.85
2023-03-18T07:56:47.206Z,68.42
2023-03-18T07:59:32.711Z,67.28
2023-03-18T08:02:03.063Z,67.11
2023-03-18T08:09:18.825Z,66.43
2023-03-18T08:11:50.744Z,66.42
2023-03-18T08:14:19.189Z,66.02
2023-03-18T08:16:47.885Z,65.61
2023-03-18T08:19:18.539Z,64.82
2023-03-18T08:21:48.985Z,65.21
2023-03-18T08:24:20.301Z,65.77
2023-03-18T08:26:54.099Z,66.09
2023-03-18T08:29:23.629Z,66.38
2023-03-18T08:31:52.660Z,66.41
2023-03-18T08:34:24.743Z,66.17
2023-03-18T08:38:09.022Z,66.09
2023-03-18T08:40:40.692Z,66.36
2023-03-18T08:43:10.249Z,66.75
2023-03-18T08:45:48.031Z,66.99
2023-03-18T08:48:19.540Z,66.88
2023-03-18T08:50:51.122Z,66.85
2023-03-18T08:53:19.671Z,66.80
2023-03-18T08:55:54.231Z,66.76
2023-03-18T08:58:24.520Z,66.99
2023-03-18T09:00:57.119Z,67.05
2023-03-18T09:03:26.017Z,67.19
2023-03-18T09:09:43.173Z,67.78
2023-03-18T09:12:14.923Z,67.91
2023-03-18T09:14:43.328Z,67.95
2023-03-18T09:17:13.224Z,67.72
2023-03-18T09:19:44.901Z,67.52
2023-03-18T09:22:15.754Z,66.91
2023-03-18T09:24:44.375Z,67.07
2023-03-18T09:27:15.151Z,67.18
2023-03-18T09:29:52.317Z,67.08
2023-03-18T09:32:22.412Z,67.35
2023-03-18T09:34:58.967Z,67.45
2023-03-18T09:37:32.384Z,67.48
2023-03-18T09:40:03.972Z,67.13
2023-03-18T09:42:57.041Z,66.67
2023-03-18T09:45:28.194Z,66.78
2023-03-18T09:48:06.491Z,66.99
2023-03-18T09:51:00.840Z,66.63
2023-03-18T09:53:50.406Z,66.00
2023-03-18T09:56:21.114Z,65.37
2023-03-18T09:58:56.208Z,65.43
2023-03-18T10:01:23.561Z,64.92
2023-03-18T10:03:54.125Z,64.89
2023-03-18T10:06:24.284Z,65.22
2023-03-18T10:09:17.507Z,64.88
2023-03-18T10:11:53.318Z,65.03
2023-03-18T10:14:27.416Z,64.34
2023-03-18T10:17:23.242Z,64.45
2023-03-18T10:19:53.894Z,64.02
2023-03-18T10:23:03.943Z,63.99
2023-03-18T10:25:54.993Z,63.75
2023-03-18T10:28:33.065Z,63.60
2023-03-18T10:31:03.795Z,63.90
2023-03-18T10:33:43.157Z,64.08
2023-03-18T10:36:44.748Z,63.74
2023-03-18T10:39:23.920Z,63.97
2023-03-18T10:42:02.345Z,63.88
2023-03-18T10:44:55.499Z,63.85
2023-03-18T10:47:31.590Z,63.90
2023-03-18T10:50:32.595Z,63.96
2023-03-18T10:53:08.693Z,63.34
2023-03-18T11:02:11.078Z,62.50
2023-03-18T11:04:47.764Z,61.67
2023-03-18T11:07:30.713Z,61.15
2023-03-18T11:10:23.281Z,61.14
2023-03-18T11:12:50.567Z,60.98
2023-03-18T11:15:19.674Z,60.14
2023-03-18T11:17:49.516Z,60.02
2023-03-18T11:20:47.565Z,60.09
2023-03-18T11:23:36.002Z,59.89
2023-03-18T11:26:05.208Z,59.80
2023-03-18T11:28:34.177Z,59.19
2023-03-18T11:31:01.928Z,58.54
2023-03-18T11:33:36.759Z,57.82
2023-03-18T11:36:06.262Z,55.67
2023-03-18T11:38:34.914Z,53.95
2023-03-18T11:41:09.254Z,51.74
2023-03-18T11:43:37.815Z,49.72
2023-03-18T11:46:10.412Z,47.36
2023-03-18T11:48:40.072Z,43.20
2023-03-18T11:51:35.221Z,42.15
2023-03-18T11:54:10.432Z,41.32
2023-03-18T11:56:42.652Z,38.93
2023-03-18T11:59:32.208Z,38.61
2023-03-18T12:02:35.865Z,38.73
2023-03-18T12:09:57.307Z,38.38
2023-03-18T12:12:55.852Z,38.02
2023-03-18T12:16:00.917Z,37.72
2023-03-18T12:18:43.309Z,37.30
2023-03-18T12:21:50.100Z,37.96
2023-03-18T12:24:52.672Z,38.82
2023-03-18T12:28:00.581Z,40.06
2023-03-18T12:30:45.486Z,41.24
2023-03-18T12:33:34.025Z,42.22
2023-03-18T12:36:51.968Z,43.19
2023-03-18T12:39:31.178Z,44.13
2023-03-18T12:42:21.873Z,44.88
2023-03-18T12:45:02.920Z,45.39
2023-03-18T12:47:46.463Z,45.28
2023-03-18T12:50:19.850Z,45.87
2023-03-18T12:53:09.351Z,46.34
2023-03-18T12:56:16.851Z,46.76
2023-03-18T12:58:49.465Z,47.23
2023-03-18T13:01:24.438Z,47.47
2023-03-18T13:03:57.226Z,47.36
2023-03-18T13:06:33.597Z,47.88
2023-03-18T13:09:26.215Z,48.14
2023-03-18T13:12:26.829Z,48.76
2023-03-18T13:15:12.895Z,49.27
2023-03-18T13:17:42.387Z,49.62
2023-03-18T13:20:15.858Z,49.73
2023-03-18T13:23:05.638Z,49.81
2023-03-18T13:25:37.869Z,50.21
2023-03-18T13:28:33.568Z,50.16
2023-03-18T13:31:29.393Z,50.85
2023-03-18T13:34:33.878Z,51.42
2023-03-18T13:37:33.396Z,51.72
2023-03-18T13:40:31.636Z,51.98
2023-03-18T13:43:00.814Z,54.44
2023-03-18T13:45:31.857Z,53.22
2023-03-18T13:48:03.245Z,52.75
2023-03-18T13:50:35.203Z,52.95
2023-03-18T13:53:04.356Z,53.33
2023-03-18T13:55:40.091Z,52.79
2023-03-18T13:58:17.254Z,52.32
2023-03-18T14:00:55.763Z,52.36
2023-03-18T14:03:31.938Z,52.53
2023-03-18T14:06:04.902Z,52.66
2023-03-18T14:21:52.791Z,51.32
2023-03-18T14:24:33.269Z,51.40
2023-03-18T14:27:09.059Z,51.85
2023-03-18T14:29:43.317Z,52.21
2023-03-18T14:32:22.430Z,52.32
2023-03-18T14:34:54.244Z,52.36
2023-03-18T14:37:35.381Z,52.31
2023-03-18T14:40:15.778Z,52.60
2023-03-18T14:43:03.104Z,53.16
2023-03-18T14:45:39.499Z,52.83
2023-03-18T14:48:29.004Z,52.66
2023-03-18T14:51:00.698Z,52.58
2023-03-18T14:53:45.809Z,52.71
2023-03-18T14:56:29.341Z,52.91
2023-03-18T14:58:56.820Z,53.36
2023-03-18T15:01:37.454Z,53.21
2023-03-18T15:04:10.119Z,53.50
2023-03-18T15:07:09.289Z,53.56
2023-03-18T15:09:45.868Z,53.65
2023-03-18T15:12:25.910Z,53.69
2023-03-18T15:15:00.108Z,54.14
2023-03-18T15:17:28.022Z,54.38
2023-03-18T15:20:06.550Z,54.15
2023-03-18T15:22:35.418Z,54.36
2023-03-18T15:25:13.051Z,54.37
2023-03-18T15:28:05.154Z,54.57
2023-03-18T15:30:34.418Z,54.70
2023-03-18T15:33:16.293Z,54.78
2023-03-18T15:35:45.929Z,54.83
2023-03-18T15:38:16.060Z,55.16
2023-03-18T15:40:52.462Z,55.36
2023-03-18T15:43:31.136Z,56.05
2023-03-18T15:46:00.759Z,56.58
2023-03-18T15:48:42.561Z,56.76
2023-03-18T15:52:07.769Z,56.85
2023-03-18T15:54:53.641Z,57.23
2023-03-18T15:57:28.474Z,57.61
2023-03-18T15:59:58.230Z,57.88
2023-03-18T16:02:26.641Z,58.25
2023-03-18T16:05:27.963Z,58.30
2023-03-18T16:08:03.583Z,58.83
2023-03-18T16:11:00.436Z,60.15
2023-03-18T16:13:34.943Z,60.31
2023-03-18T16:16:03.622Z,60.28
2023-03-18T16:18:34.773Z,60.60
2023-03-18T16:21:14.838Z,61.48
2023-03-18T16:23:42.753Z,61.19
2023-03-18T16:26:16.376Z,60.64
2023-03-18T16:28:47.057Z,60.63
2023-03-18T16:31:49.924Z,60.54
2023-03-18T16:34:36.725Z,60.93
2023-03-18T16:37:06.036Z,60.68
2023-03-18T16:39:34.925Z,60.72
2023-03-18T16:42:06.924Z,60.81
2023-03-18T16:44:35.631Z,60.82
2023-03-18T16:47:05.464Z,60.81
2023-03-18T16:49:34.084Z,60.85
2023-03-18T16:52:06.319Z,60.76
2023-03-18T16:54:34.025Z,61.08
2023-03-18T16:57:15.813Z,60.96
2023-03-18T16:59:56.178Z,61.22
